createdAt,value
2018-05-16T00:01:31.654Z,16.30
2018-05-16T00:03:59.937Z,16.40
2018-05-16T00:06:28.323Z,18.10
2018-05-16T00:08:55.896Z,16.67
2018-05-16T00:11:23.433Z,19.43
2018-05-16T00:13:51.768Z,18.90
2018-05-16T00:16:19.341Z,16.73
2018-05-16T00:18:46.904Z,18.70
2018-05-16T00:21:14.440Z,16.67
2018-05-16T00:23:42.004Z,16.30
2018-05-16T00:26:09.562Z,17.23
2018-05-16T00:28:37.167Z,18.60
2018-05-16T00:31:04.705Z,17.60
2018-05-16T00:33:32.251Z,18.87
2018-05-16T00:35:59.835Z,18.13
2018-05-16T00:38:28.169Z,17.50
2018-05-16T00:40:55.703Z,14.97
2018-05-16T00:43:23.300Z,16.63
2018-05-16T00:45:50.855Z,18.73
2018-05-16T00:48:18.501Z,15.30
2018-05-16T00:50:58.243Z,19.20
2018-05-16T00:53:26.544Z,15.50
2018-05-16T00:55:54.103Z,17.60
2018-05-16T00:58:21.647Z,16.83
2018-05-16T01:00:49.320Z,19.23
2018-05-16T01:03:16.861Z,18.40
2018-05-16T01:05:44.407Z,20.97
2018-05-16T01:08:11.926Z,20.33
2018-05-16T01:10:40.276Z,19.40
2018-05-16T01:13:07.909Z,16.77
2018-05-16T01:15:35.438Z,17.47
2018-05-16T01:18:03.777Z,20.90
2018-05-16T01:20:32.827Z,19.33
2018-05-16T01:23:00.431Z,19.63
2018-05-16T01:25:27.983Z,21.10
2018-05-16T01:27:55.561Z,20.37
2018-05-16T01:30:24.629Z,18.80
2018-05-16T01:32:52.181Z,21.10
2018-05-16T01:35:19.705Z,20.70
2018-05-16T01:37:47.242Z,21.17
2018-05-16T01:40:15.570Z,21.57
2018-05-16T01:42:43.126Z,24.43
2018-05-16T01:45:10.696Z,23.57
2018-05-16T01:47:38.316Z,26.87
2018-05-16T01:50:05.912Z,26.90
2018-05-16T01:52:33.472Z,28.90
2018-05-16T01:55:01.015Z,27.87
2018-05-16T01:57:28.592Z,29.07
2018-05-16T01:59:56.152Z,31.70
2018-05-16T02:02:23.742Z,37.70
2018-05-16T02:04:51.356Z,36.33
2018-05-16T02:07:18.910Z,36.50
2018-05-16T02:09:46.502Z,37.93
2018-05-16T02:12:14.051Z,34.97
2018-05-16T02:14:41.593Z,36.30
2018-05-16T02:17:09.187Z,32.37
2018-05-16T02:19:36.728Z,34.20
2018-05-16T02:22:05.152Z,32.00
2018-05-16T02:24:32.694Z,35.17
2018-05-16T02:27:00.238Z,35.40
2018-05-16T02:29:27.781Z,32.97
2018-05-16T02:31:56.169Z,28.67
2018-05-16T02:34:23.723Z,34.70
2018-05-16T02:36:51.273Z,32.20
2018-05-16T02:39:18.877Z,30.70
2018-05-16T02:41:46.430Z,35.20
2018-05-16T02:44:14.106Z,31.50
2018-05-16T02:46:41.590Z,34.40
2018-05-16T02:49:09.157Z,28.97
2018-05-16T02:51:36.710Z,30.50
2018-05-16T02:54:04.247Z,33.27
2018-05-16T02:56:32.614Z,31.13
2018-05-16T02:59:01.701Z,28.67
2018-05-16T03:01:29.259Z,29.67
2018-05-16T03:03:56.841Z,30.80
2018-05-16T03:06:26.570Z,28.33
2018-05-16T03:08:54.150Z,29.90
2018-05-16T03:11:21.715Z,32.00
2018-05-16T03:13:49.473Z,29.90
2018-05-16T03:16:17.068Z,35.00
2018-05-16T03:18:44.651Z,31.10
2018-05-16T03:21:12.956Z,31.13
2018-05-16T03:23:40.556Z,29.33
2018-05-16T03:26:08.113Z,30.43
2018-05-16T03:28:35.706Z,32.73
2018-05-16T03:31:04.007Z,28.93
2018-05-16T03:33:31.547Z,35.40
2018-05-16T03:35:59.896Z,32.67
2018-05-16T03:38:27.450Z,34.10
2018-05-16T03:40:54.995Z,31.37
2018-05-16T03:43:22.554Z,31.77
2018-05-16T03:45:50.123Z,33.83
2018-05-16T03:48:17.666Z,34.37
2018-05-16T03:50:45.226Z,33.53
2018-05-16T03:53:12.749Z,33.07
2018-05-16T03:55:41.092Z,36.33
2018-05-16T03:58:20.627Z,32.63
2018-05-16T04:01:00.009Z,31.90
2018-05-16T04:03:39.499Z,31.20
2018-05-16T04:06:07.052Z,33.10
2018-05-16T04:08:34.619Z,35.70
2018-05-16T04:11:02.198Z,29.83
2018-05-16T04:13:29.805Z,32.87
2018-05-16T04:15:57.371Z,32.47
2018-05-16T04:18:24.914Z,34.27
2018-05-16T04:20:52.484Z,33.30
2018-05-16T04:23:20.062Z,37.00
2018-05-16T04:25:47.611Z,35.57
2018-05-16T04:28:15.155Z,33.57
2018-05-16T04:30:42.714Z,36.50
2018-05-16T04:33:10.460Z,36.47
2018-05-16T04:35:38.065Z,31.70
2018-05-16T04:38:06.337Z,31.53
2018-05-16T04:40:33.911Z,32.80
2018-05-16T04:43:01.490Z,32.70
2018-05-16T04:45:29.069Z,31.67
2018-05-16T04:47:57.386Z,30.37
2018-05-16T04:50:24.969Z,29.33
2018-05-16T04:52:52.579Z,29.67
2018-05-16T04:55:20.098Z,30.20
2018-05-16T04:57:47.634Z,28.70
2018-05-16T05:00:15.213Z,27.60
2018-05-16T05:02:42.752Z,26.00
2018-05-16T05:05:10.326Z,31.87
2018-05-16T05:07:37.954Z,31.30
2018-05-16T05:10:05.516Z,31.30
2018-05-16T05:12:33.107Z,30.07
2018-05-16T05:15:00.649Z,28.60
2018-05-16T05:17:28.222Z,28.27
2018-05-16T05:19:55.798Z,31.80
2018-05-16T05:22:23.354Z,31.10
2018-05-16T05:24:50.918Z,30.13
2018-05-16T05:27:20.010Z,29.90
2018-05-16T05:29:48.332Z,26.77
2018-05-16T05:32:15.881Z,26.90
2018-05-16T05:34:44.220Z,28.20
2018-05-16T05:37:12.534Z,27.00
2018-05-16T05:39:40.139Z,27.20
2018-05-16T05:42:07.779Z,29.13
2018-05-16T05:44:35.312Z,26.70
2018-05-16T05:47:03.651Z,26.07
2018-05-16T05:49:32.714Z,26.60
2018-05-16T05:52:00.281Z,28.73
2018-05-16T05:54:27.836Z,27.37
2018-05-16T05:56:55.420Z,25.90
2018-05-16T05:59:22.982Z,27.47
2018-05-16T06:01:50.531Z,27.23
2018-05-16T06:04:18.115Z,26.23
2018-05-16T06:06:45.658Z,27.33
2018-05-16T06:09:13.207Z,26.83
2018-05-16T06:11:40.771Z,28.00
2018-05-16T06:14:08.349Z,30.50
2018-05-16T06:16:37.420Z,28.43
2018-05-16T06:19:04.979Z,29.77
2018-05-16T06:21:32.547Z,28.80
2018-05-16T06:24:00.107Z,27.70
2018-05-16T06:26:27.659Z,26.40
2018-05-16T06:28:55.178Z,25.50
2018-05-16T06:31:22.759Z,24.53
2018-05-16T06:33:50.291Z,26.37
2018-05-16T06:36:17.880Z,24.67
2018-05-16T06:38:45.440Z,26.13
2018-05-16T06:41:12.988Z,28.20
2018-05-16T06:43:40.563Z,28.90
2018-05-16T06:46:08.160Z,29.33
2018-05-16T06:48:35.828Z,28.03
2018-05-16T06:51:04.158Z,30.37
2018-05-16T06:53:31.851Z,28.63
2018-05-16T06:55:59.381Z,33.07
2018-05-16T06:58:26.958Z,30.63
2018-05-16T07:00:54.486Z,32.53
2018-05-16T07:03:22.061Z,33.87
2018-05-16T07:05:49.630Z,32.53
2018-05-16T07:08:17.216Z,32.03
2018-05-16T07:10:44.854Z,33.17
2018-05-16T07:13:12.439Z,34.17
2018-05-16T07:15:40.039Z,31.97
2018-05-16T07:18:07.569Z,33.73
2018-05-16T07:20:35.904Z,34.53
2018-05-16T07:23:03.487Z,31.80
2018-05-16T07:25:31.135Z,31.10
2018-05-16T07:27:58.688Z,29.77
2018-05-16T07:30:26.253Z,30.40
2018-05-16T07:32:53.780Z,31.77
2018-05-16T07:35:21.335Z,31.40
2018-05-16T07:37:48.879Z,31.77
2018-05-16T07:40:16.413Z,26.67
2018-05-16T07:42:43.958Z,27.33
2018-05-16T07:45:11.486Z,25.53
2018-05-16T07:47:39.030Z,26.60
2018-05-16T07:50:06.595Z,25.63
2018-05-16T07:52:34.161Z,25.57
2018-05-16T07:55:01.715Z,26.03
2018-05-16T07:57:29.286Z,27.23
2018-05-16T07:59:56.838Z,25.97
2018-05-16T08:02:24.391Z,27.13
2018-05-16T08:04:51.945Z,25.43
2018-05-16T08:07:19.498Z,27.10
2018-05-16T08:09:47.082Z,27.10
2018-05-16T08:12:14.740Z,28.53
2018-05-16T08:14:42.298Z,25.90
2018-05-16T08:17:09.833Z,29.30
2018-05-16T08:19:37.403Z,25.13
2018-05-16T08:22:05.003Z,27.50
2018-05-16T08:24:32.572Z,25.57
2018-05-16T08:27:00.191Z,26.30
2018-05-16T08:29:27.729Z,25.40
2018-05-16T08:31:55.343Z,27.23
2018-05-16T08:34:22.918Z,25.57
2018-05-16T08:36:50.545Z,25.53
2018-05-16T08:39:19.559Z,27.07
2018-05-16T08:41:47.215Z,26.30
2018-05-16T08:44:14.742Z,26.33
2018-05-16T08:46:42.320Z,25.93
2018-05-16T08:49:09.895Z,28.30
2018-05-16T08:51:37.470Z,25.93
2018-05-16T08:54:05.000Z,22.77
2018-05-16T08:56:32.644Z,20.57
2018-05-16T08:59:00.201Z,18.07
2018-05-16T09:01:27.752Z,16.13
2018-05-16T09:03:55.362Z,14.40
2018-05-16T09:06:22.910Z,13.67
2018-05-16T09:08:50.458Z,15.07
2018-05-16T09:11:18.031Z,16.40
2018-05-16T09:13:45.603Z,17.73
2018-05-16T09:16:13.192Z,18.13
2018-05-16T09:18:40.738Z,16.43
2018-05-16T09:21:09.044Z,16.50
2018-05-16T09:23:36.615Z,18.73
2018-05-16T09:26:04.138Z,17.80
2018-05-16T09:28:32.441Z,15.43
2018-05-16T09:31:00.000Z,17.50
2018-05-16T09:33:27.554Z,20.23
2018-05-16T09:35:55.168Z,20.33
2018-05-16T09:38:22.730Z,23.40
2018-05-16T09:40:50.269Z,21.83
2018-05-16T09:43:17.801Z,21.40
2018-05-16T09:45:45.471Z,23.03
2018-05-16T09:48:12.979Z,24.20
2018-05-16T09:50:41.384Z,20.27
2018-05-16T09:53:09.700Z,19.90
2018-05-16T09:55:37.271Z,20.50
2018-05-16T09:58:04.868Z,22.50
2018-05-16T10:00:33.215Z,20.70
2018-05-16T10:03:00.762Z,16.30
2018-05-16T10:05:28.290Z,19.50
2018-05-16T10:07:55.860Z,20.63
2018-05-16T10:10:23.434Z,20.27
2018-05-16T10:12:51.023Z,20.70
2018-05-16T10:15:18.602Z,19.00
2018-05-16T10:17:46.888Z,17.57
2018-05-16T10:20:15.284Z,18.80
2018-05-16T10:22:43.569Z,19.43
2018-05-16T10:25:11.124Z,20.83
2018-05-16T10:27:38.719Z,20.73
2018-05-16T10:30:06.375Z,20.80
2018-05-16T10:32:33.955Z,19.87
2018-05-16T10:35:01.540Z,20.23
2018-05-16T10:37:29.834Z,20.70
2018-05-16T10:39:57.369Z,24.00
2018-05-16T10:42:24.958Z,20.17
2018-05-16T10:44:52.519Z,21.60
2018-05-16T10:47:20.102Z,19.50
2018-05-16T10:49:47.679Z,19.73
2018-05-16T10:52:16.132Z,20.27
2018-05-16T10:54:44.377Z,20.93
2018-05-16T10:57:11.909Z,21.90
2018-05-16T10:59:39.464Z,20.90
2018-05-16T11:02:07.019Z,19.10
2018-05-16T11:04:34.547Z,18.57
2018-05-16T11:07:02.092Z,18.87
2018-05-16T11:09:29.615Z,18.30
2018-05-16T11:11:57.959Z,19.53
2018-05-16T11:14:25.505Z,16.70
2018-05-16T11:16:53.055Z,20.90
2018-05-16T11:19:20.598Z,19.70
2018-05-16T11:21:48.169Z,18.10
2018-05-16T11:24:15.710Z,18.33
2018-05-16T11:26:43.319Z,17.20
2018-05-16T11:29:10.870Z,16.53
2018-05-16T11:31:38.412Z,16.80
2018-05-16T11:34:05.996Z,16.53
2018-05-16T11:36:34.343Z,16.70
2018-05-16T11:39:01.902Z,15.50
2018-05-16T11:41:29.477Z,14.43
2018-05-16T11:43:57.031Z,14.57
2018-05-16T11:46:24.580Z,16.97
2018-05-16T11:48:52.205Z,15.20
2018-05-16T11:51:19.731Z,15.67
2018-05-16T11:53:47.390Z,15.90
2018-05-16T11:56:14.934Z,13.23
2018-05-16T11:58:42.513Z,15.97
2018-05-16T12:01:11.591Z,16.93
2018-05-16T12:03:39.159Z,12.60
2018-05-16T12:06:06.702Z,14.40
2018-05-16T12:08:34.243Z,13.97
2018-05-16T12:11:01.801Z,13.90
2018-05-16T12:13:29.387Z,13.70
2018-05-16T12:15:56.940Z,14.73
2018-05-16T12:18:24.512Z,13.57
2018-05-16T12:20:52.067Z,13.80
2018-05-16T12:23:19.648Z,15.60
2018-05-16T12:25:47.209Z,15.33
2018-05-16T12:28:18.245Z,16.63
2018-05-16T12:30:45.795Z,12.90
2018-05-16T12:33:13.383Z,11.90
2018-05-16T12:35:41.702Z,12.40
2018-05-16T12:38:09.266Z,14.40
2018-05-16T12:40:36.822Z,13.47
2018-05-16T12:43:16.359Z,14.23
2018-05-16T12:45:43.929Z,13.67
2018-05-16T12:48:11.488Z,13.13
2018-05-16T12:50:39.055Z,14.13
2018-05-16T12:53:06.604Z,14.97
2018-05-16T12:55:34.170Z,13.60
2018-05-16T12:58:01.695Z,11.67
2018-05-16T13:00:29.230Z,12.53
2018-05-16T13:02:56.804Z,13.17
2018-05-16T13:05:25.132Z,12.90
2018-05-16T13:07:52.678Z,13.70
2018-05-16T13:10:20.224Z,13.37
2018-05-16T13:12:47.774Z,11.03
2018-05-16T13:15:15.352Z,11.00
2018-05-16T13:17:43.714Z,12.03
2018-05-16T13:20:11.980Z,10.70
2018-05-16T13:22:40.266Z,9.73
2018-05-16T13:25:07.818Z,14.03
2018-05-16T13:27:36.131Z,15.87
2018-05-16T13:30:03.707Z,15.17
2018-05-16T13:32:31.254Z,15.17
2018-05-16T13:34:58.882Z,14.23
2018-05-16T13:37:26.443Z,13.40
2018-05-16T13:39:53.995Z,13.47
2018-05-16T13:42:21.533Z,14.17
2018-05-16T13:44:49.842Z,13.90
2018-05-16T13:47:17.361Z,14.00
2018-05-16T13:49:44.957Z,12.60
2018-05-16T13:52:12.520Z,14.30
2018-05-16T13:54:40.075Z,13.83
2018-05-16T13:57:07.659Z,13.33
2018-05-16T13:59:35.206Z,13.50
2018-05-16T14:02:02.741Z,12.47
2018-05-16T14:04:31.069Z,11.10
2018-05-16T14:06:58.651Z,11.90
2018-05-16T14:09:26.220Z,12.70
2018-05-16T14:11:54.549Z,13.83
2018-05-16T14:14:22.116Z,14.60
2018-05-16T14:16:49.788Z,14.63
2018-05-16T14:19:17.354Z,15.47
2018-05-16T14:21:44.912Z,14.70
2018-05-16T14:24:12.447Z,15.00
2018-05-16T14:26:40.026Z,14.97
2018-05-16T14:29:07.604Z,14.67
2018-05-16T14:31:35.906Z,13.93
2018-05-16T14:34:03.491Z,14.30
2018-05-16T14:36:31.091Z,12.67
2018-05-16T14:38:58.751Z,12.10
2018-05-16T14:41:26.474Z,12.00
2018-05-16T14:43:53.996Z,14.70
2018-05-16T14:46:21.571Z,13.23
2018-05-16T14:48:49.113Z,12.60
2018-05-16T14:51:16.637Z,12.43
2018-05-16T14:53:44.236Z,12.90
2018-05-16T14:56:12.530Z,14.63
2018-05-16T14:58:40.825Z,14.53
2018-05-16T15:01:08.381Z,15.60
2018-05-16T15:03:35.939Z,13.00
2018-05-16T15:06:03.498Z,13.17
2018-05-16T15:08:31.051Z,13.63
2018-05-16T15:10:58.628Z,13.50
2018-05-16T15:13:26.158Z,13.90
2018-05-16T15:15:54.482Z,14.37
2018-05-16T15:18:22.044Z,12.77
2018-05-16T15:20:49.569Z,13.97
2018-05-16T15:23:17.150Z,13.17
2018-05-16T15:25:44.675Z,8.03
2018-05-16T15:28:13.062Z,7.00
2018-05-16T15:30:40.610Z,6.40
2018-05-16T15:33:08.203Z,6.30
2018-05-16T15:35:35.729Z,5.60
2018-05-16T15:38:03.342Z,5.47
2018-05-16T15:40:30.867Z,5.10
2018-05-16T15:42:58.404Z,5.60
2018-05-16T15:45:26.755Z,5.13
2018-05-16T15:47:54.282Z,6.40
2018-05-16T15:50:21.884Z,5.80
2018-05-16T15:52:50.235Z,6.30
2018-05-16T15:55:17.868Z,5.93
2018-05-16T15:57:45.425Z,6.27
2018-05-16T16:00:13.000Z,5.73
2018-05-16T16:02:40.672Z,6.30
2018-05-16T16:05:08.186Z,6.33
2018-05-16T16:07:35.733Z,6.30
2018-05-16T16:10:04.093Z,7.67
2018-05-16T16:12:32.387Z,6.90
2018-05-16T16:15:00.701Z,6.80
2018-05-16T16:17:28.270Z,6.77
2018-05-16T16:19:55.794Z,8.57
2018-05-16T16:22:23.327Z,7.13
2018-05-16T16:24:50.876Z,7.50
2018-05-16T16:27:18.443Z,8.40
2018-05-16T16:29:46.002Z,10.07
2018-05-16T16:32:14.347Z,9.73
2018-05-16T16:34:42.679Z,9.60
2018-05-16T16:37:10.259Z,9.80
2018-05-16T16:39:37.812Z,9.67
2018-05-16T16:42:05.419Z,8.97
2018-05-16T16:44:32.955Z,9.50
2018-05-16T16:47:00.548Z,10.87
2018-05-16T16:49:28.103Z,10.40
2018-05-16T16:51:55.695Z,9.23
2018-05-16T16:54:24.002Z,10.60
2018-05-16T16:56:51.586Z,9.90
2018-05-16T16:59:19.175Z,10.90
2018-05-16T17:01:46.720Z,10.00
2018-05-16T17:04:14.266Z,10.07
2018-05-16T17:06:41.826Z,9.57
2018-05-16T17:09:09.407Z,9.80
2018-05-16T17:11:36.941Z,9.30
2018-05-16T17:14:04.538Z,10.27
2018-05-16T17:16:32.894Z,9.37
2018-05-16T17:19:00.486Z,11.67
2018-05-16T17:21:28.794Z,11.67
2018-05-16T17:23:56.379Z,11.33
2018-05-16T17:26:23.934Z,10.50
2018-05-16T17:28:51.505Z,12.67
2018-05-16T17:31:19.081Z,12.00
2018-05-16T17:33:46.647Z,12.60
2018-05-16T17:36:14.995Z,13.57
2018-05-16T17:38:42.536Z,13.63
2018-05-16T17:41:10.107Z,12.27
2018-05-16T17:43:37.653Z,12.00
2018-05-16T17:46:05.232Z,12.73
2018-05-16T17:48:32.800Z,12.37
2018-05-16T17:51:01.134Z,12.33
2018-05-16T17:53:28.701Z,12.93
2018-05-16T17:55:56.265Z,13.53
2018-05-16T17:58:23.807Z,14.97
2018-05-16T18:00:51.340Z,13.93
2018-05-16T18:03:19.656Z,14.93
2018-05-16T18:05:47.189Z,14.73
2018-05-16T18:08:15.526Z,15.17
2018-05-16T18:10:43.099Z,14.07
2018-05-16T18:16:36.379Z,15.33
2018-05-16T18:19:03.966Z,15.50
2018-05-16T18:21:31.498Z,14.07
2018-05-16T18:23:59.317Z,16.43
2018-05-16T18:26:26.850Z,17.80
2018-05-16T18:28:54.389Z,18.23
2018-05-16T18:31:23.629Z,17.20
2018-05-16T18:33:51.203Z,17.97
2018-05-16T18:36:18.785Z,18.00
2018-05-16T18:38:46.317Z,18.53
2018-05-16T18:41:13.871Z,18.67
2018-05-16T18:43:41.423Z,20.30
2018-05-16T18:46:08.996Z,18.83
2018-05-16T18:48:36.566Z,17.27
2018-05-16T18:51:04.138Z,20.20
2018-05-16T18:53:31.724Z,20.50
2018-05-16T18:56:00.069Z,19.40
2018-05-16T18:58:27.627Z,19.40
2018-05-16T19:00:55.153Z,19.47
2018-05-16T19:03:22.727Z,20.93
2018-05-16T19:05:50.298Z,21.40
2018-05-16T19:08:17.848Z,21.20
2018-05-16T19:10:45.420Z,19.30
2018-05-16T19:13:12.993Z,19.63
2018-05-16T19:15:40.619Z,20.43
2018-05-16T19:18:08.196Z,20.50
2018-05-16T19:20:35.757Z,23.57
2018-05-16T19:23:03.315Z,21.60
2018-05-16T19:25:30.890Z,21.73
2018-05-16T19:27:58.439Z,20.57
2018-05-16T19:30:26.000Z,21.20
2018-05-16T19:32:53.575Z,21.03
2018-05-16T19:35:21.132Z,17.70
2018-05-16T19:37:48.716Z,19.23
2018-05-16T19:40:16.344Z,20.17
2018-05-16T19:42:43.875Z,17.50
2018-05-16T19:45:11.470Z,19.80
2018-05-16T19:47:38.994Z,19.13
2018-05-16T19:50:06.568Z,18.07
2018-05-16T19:52:34.098Z,18.97
2018-05-16T19:55:01.626Z,18.37
2018-05-16T19:57:29.995Z,21.30
2018-05-16T19:59:57.551Z,20.00
2018-05-16T20:02:25.112Z,21.63
2018-05-16T20:04:52.832Z,21.73
2018-05-16T20:07:20.447Z,20.77
2018-05-16T20:09:48.026Z,21.40
2018-05-16T20:12:16.341Z,22.27
2018-05-16T20:14:43.938Z,22.30
2018-05-16T20:17:11.507Z,23.57
2018-05-16T20:19:39.835Z,22.60
2018-05-16T20:22:07.423Z,25.20
2018-05-16T20:24:35.778Z,26.07
2018-05-16T20:27:03.340Z,25.53
2018-05-16T20:29:31.024Z,26.50
2018-05-16T20:31:59.267Z,26.03
2018-05-16T20:34:26.854Z,26.23
2018-05-16T20:36:54.431Z,24.20
2018-05-16T20:39:21.995Z,26.03
2018-05-16T20:41:49.574Z,26.73
2018-05-16T20:44:17.119Z,27.17
2018-05-16T20:46:45.488Z,28.50
2018-05-16T20:49:13.058Z,30.37
2018-05-16T20:51:41.519Z,27.90
2018-05-16T20:54:09.896Z,27.27
2018-05-16T20:56:37.489Z,27.93
2018-05-16T20:59:05.025Z,28.70
2018-05-16T21:01:32.544Z,27.77
2018-05-16T21:04:00.145Z,29.20
2018-05-16T21:06:27.742Z,30.10
2018-05-16T21:08:55.278Z,29.57
2018-05-16T21:11:23.601Z,29.43
2018-05-16T21:13:51.175Z,30.73
2018-05-16T21:16:18.697Z,27.50
2018-05-16T21:18:46.238Z,29.13
2018-05-16T21:21:14.526Z,27.57
2018-05-16T21:23:42.104Z,28.43
2018-05-16T21:26:09.712Z,30.70
2018-05-16T21:28:37.289Z,31.50
2018-05-16T21:31:05.630Z,34.20
2018-05-16T21:33:33.166Z,33.77
2018-05-16T21:36:00.730Z,29.50
2018-05-16T21:38:28.288Z,32.10
2018-05-16T21:40:55.867Z,31.10
2018-05-16T21:43:23.389Z,34.67
2018-05-16T21:45:50.972Z,37.20
2018-05-16T21:48:18.548Z,33.60
2018-05-16T21:50:46.210Z,35.87
2018-05-16T21:53:13.749Z,38.07
2018-05-16T21:55:41.330Z,36.30
2018-05-16T21:58:08.866Z,33.63
2018-05-16T22:00:36.434Z,39.33
2018-05-16T22:03:03.962Z,37.40
2018-05-16T22:05:31.520Z,39.63
2018-05-16T22:07:59.070Z,40.40
2018-05-16T22:10:27.420Z,37.77
2018-05-16T22:12:55.015Z,36.87
2018-05-16T22:15:23.296Z,34.43
2018-05-16T22:17:50.898Z,40.07
2018-05-16T22:20:18.419Z,35.67
2018-05-16T22:22:45.971Z,39.50
2018-05-16T22:25:13.494Z,39.33
2018-05-16T22:27:41.067Z,40.73
2018-05-16T22:30:08.887Z,42.73
2018-05-16T22:32:42.033Z,47.80
2018-05-16T22:35:16.087Z,44.70
2018-05-16T22:37:49.348Z,46.70
2018-05-16T22:40:22.649Z,45.47
2018-05-16T22:42:49.727Z,50.73
2018-05-16T22:45:22.974Z,49.90
2018-05-16T22:47:50.536Z,55.40
2018-05-16T22:50:18.085Z,55.67
2018-05-16T22:52:46.413Z,56.20
2018-05-16T22:55:13.991Z,55.53
2018-05-16T22:57:41.526Z,56.20
2018-05-16T23:00:09.081Z,55.13
2018-05-16T23:02:36.611Z,58.60
2018-05-16T23:05:04.167Z,52.80
2018-05-16T23:07:31.754Z,57.87
2018-05-16T23:09:59.281Z,54.90
2018-05-16T23:12:26.830Z,55.03
2018-05-16T23:14:55.168Z,54.20
2018-05-16T23:17:22.714Z,52.47
2018-05-16T23:19:50.366Z,53.37
2018-05-16T23:22:17.913Z,52.10
2018-05-16T23:24:45.488Z,53.10
2018-05-16T23:27:13.038Z,52.87
2018-05-16T23:29:40.557Z,49.00
2018-05-16T23:32:08.130Z,45.80
2018-05-16T23:34:36.470Z,47.50
2018-05-16T23:37:04.047Z,40.30
2018-05-16T23:39:31.606Z,40.23
2018-05-16T23:41:59.202Z,40.30
2018-05-16T23:44:26.787Z,42.43
2018-05-16T23:46:54.317Z,37.17
2018-05-16T23:49:21.881Z,38.10
2018-05-16T23:51:49.414Z,38.37
2018-05-16T23:54:17.719Z,37.33
2018-05-16T23:56:45.282Z,36.67
2018-05-16T23:59:12.864Z,35.53
